createdAt,value
2023-03-21T00:01:03.795Z,780.38
2023-03-21T00:06:11.366Z,783.43
2023-03-21T00:16:21.160Z,781.53
2023-03-21T00:22:03.693Z,784.22
2023-03-21T00:26:54.121Z,791.17
2023-03-21T00:31:56.858Z,781.17
2023-03-21T00:37:01.728Z,782.25
2023-03-21T00:42:04.765Z,782.13
2023-03-21T00:47:08.188Z,779.47
2023-03-21T00:52:24.805Z,781.00
2023-03-21T00:57:39.029Z,759.58
2023-03-21T01:03:02.738Z,748.50
2023-03-21T01:08:23.786Z,736.35
2023-03-21T01:13:28.738Z,752.55
2023-03-21T01:18:31.894Z,746.40
2023-03-21T01:23:33.811Z,698.17
2023-03-21T01:28:39.621Z,698.05
2023-03-21T01:33:42.292Z,729.40
2023-03-21T01:38:44.320Z,752.63
2023-03-21T01:43:47.342Z,761.95
2023-03-21T01:48:58.082Z,749.03
2023-03-21T01:54:00.693Z,744.53
2023-03-21T01:59:17.377Z,746.00
2023-03-21T02:04:30.336Z,732.03
2023-03-21T02:09:49.307Z,739.08
2023-03-21T02:14:56.249Z,763.15
2023-03-21T02:20:29.647Z,775.45
2023-03-21T02:26:01.623Z,790.70
2023-03-21T02:31:16.458Z,786.58
2023-03-21T02:36:30.941Z,782.13
2023-03-21T02:41:41.557Z,776.67
2023-03-21T02:47:05.541Z,778.55
2023-03-21T02:52:25.570Z,783.20
2023-03-21T02:57:42.600Z,785.35
2023-03-21T03:02:48.851Z,788.40
2023-03-21T03:08:01.534Z,783.38
2023-03-21T03:13:03.376Z,784.75
2023-03-21T03:18:32.279Z,778.25
2023-03-21T03:23:45.722Z,796.40
2023-03-21T03:28:54.290Z,774.78
2023-03-21T03:34:02.254Z,765.45
2023-03-21T03:39:09.093Z,767.17
2023-03-21T03:44:13.688Z,773.10
2023-03-21T03:49:24.730Z,773.00
2023-03-21T03:54:32.362Z,772.13
2023-03-21T03:59:40.933Z,773.25
2023-03-21T04:05:01.167Z,771.15
2023-03-21T04:10:07.502Z,769.25
2023-03-21T04:15:16.220Z,771.00
2023-03-21T04:20:36.025Z,761.20
2023-03-21T04:25:47.539Z,670.80
2023-03-21T04:31:03.707Z,716.35
2023-03-21T04:36:30.693Z,717.38
2023-03-21T04:41:37.271Z,705.83
2023-03-21T04:46:53.317Z,722.75
2023-03-21T04:51:55.372Z,675.13
2023-03-21T04:56:57.290Z,720.13
2023-03-21T05:02:02.305Z,722.65
2023-03-21T05:07:06.080Z,732.15
2023-03-21T05:12:07.954Z,743.83
2023-03-21T05:17:15.446Z,769.47
2023-03-21T05:22:19.418Z,758.60
2023-03-21T05:27:35.736Z,779.13
2023-03-21T05:32:44.156Z,746.00
2023-03-21T05:37:47.211Z,763.72
2023-03-21T05:42:49.924Z,710.17
2023-03-21T05:47:59.238Z,710.35
2023-03-21T05:53:07.097Z,702.20
2023-03-21T05:58:09.703Z,769.30
2023-03-21T06:03:13.655Z,780.35
2023-03-21T06:08:35.959Z,774.55
2023-03-21T06:13:37.870Z,758.75
2023-03-21T06:18:39.762Z,762.60
2023-03-21T06:24:04.826Z,771.63
2023-03-21T06:29:06.753Z,775.90
2023-03-21T06:34:10.703Z,767.67
2023-03-21T06:39:13.582Z,771.55
2023-03-21T06:44:16.331Z,773.55
2023-03-21T06:49:27.516Z,755.08
2023-03-21T06:54:32.390Z,724.42
2023-03-21T06:59:36.924Z,743.70
2023-03-21T07:04:44.794Z,681.13
2023-03-21T07:14:54.457Z,666.72
2023-03-21T07:19:56.956Z,727.75
2023-03-21T07:25:04.817Z,736.15
2023-03-21T07:30:13.624Z,753.67
2023-03-21T07:35:17.666Z,732.55
2023-03-21T07:40:20.338Z,759.13
2023-03-21T07:45:25.369Z,786.05
2023-03-21T07:50:27.501Z,782.78
2023-03-21T07:55:29.725Z,777.78
2023-03-21T08:00:31.948Z,781.40
2023-03-21T08:05:37.055Z,784.50
2023-03-21T08:10:39.285Z,790.38
2023-03-21T08:15:42.198Z,789.38
2023-03-21T08:20:44.224Z,783.90
2023-03-21T08:25:46.882Z,786.00
2023-03-21T08:30:49.677Z,787.80
2023-03-21T08:35:51.611Z,724.78
2023-03-21T08:40:53.556Z,777.67
2023-03-21T08:45:56.751Z,785.50
2023-03-21T08:51:00.868Z,793.70
2023-03-21T08:56:02.715Z,632.22
2023-03-21T09:01:07.035Z,633.00
2023-03-21T09:06:14.200Z,633.72
2023-03-21T09:11:16.121Z,792.88
2023-03-21T09:16:18.050Z,792.22
2023-03-21T09:21:20.388Z,788.38
2023-03-21T09:26:24.069Z,788.13
2023-03-21T09:31:25.995Z,795.60
2023-03-21T09:36:28.364Z,792.15
2023-03-21T09:41:33.508Z,758.55
2023-03-21T09:47:04.561Z,775.30
2023-03-21T09:52:18.386Z,790.78
2023-03-21T09:57:31.837Z,795.70
2023-03-21T10:02:57.572Z,798.55
2023-03-21T10:08:05.653Z,794.13
2023-03-21T10:13:15.690Z,791.08
2023-03-21T10:18:23.488Z,792.03
2023-03-21T10:23:28.894Z,786.58
2023-03-21T10:28:50.006Z,792.40
2023-03-21T10:33:57.476Z,794.25
2023-03-21T10:39:01.979Z,790.63
2023-03-21T10:44:17.300Z,795.40
2023-03-21T10:49:21.658Z,791.15
2023-03-21T10:54:28.812Z,796.90
2023-03-21T10:59:39.940Z,798.92
2023-03-21T11:04:43.636Z,752.95
2023-03-21T11:09:57.742Z,635.08
2023-03-21T11:15:25.030Z,756.35
2023-03-21T11:20:31.984Z,827.97
2023-03-21T11:25:42.420Z,820.08
2023-03-21T11:30:54.193Z,818.45
2023-03-21T11:36:27.302Z,787.58
2023-03-21T11:41:33.810Z,781.08
2023-03-21T11:46:40.743Z,816.50
2023-03-21T11:52:04.056Z,827.80
2023-03-21T11:57:29.607Z,830.55
2023-03-21T12:02:54.970Z,830.38
2023-03-21T12:07:56.871Z,814.50
2023-03-21T12:13:17.621Z,848.17
2023-03-21T12:18:44.457Z,845.85
2023-03-21T12:24:01.551Z,776.15
2023-03-21T12:29:18.559Z,835.50
2023-03-21T12:34:45.131Z,216.80
2023-03-21T12:39:49.236Z,318.55
2023-03-21T12:45:00.649Z,564.42
2023-03-21T12:50:09.342Z,867.10
2023-03-21T12:55:22.072Z,864.33
2023-03-21T13:01:01.402Z,865.65
2023-03-21T13:06:09.385Z,884.67
2023-03-21T13:11:15.693Z,838.28
2023-03-21T13:16:30.312Z,870.65
2023-03-21T13:21:56.402Z,832.22
2023-03-21T13:27:07.481Z,354.27
2023-03-21T13:32:31.019Z,881.50
2023-03-21T13:37:34.959Z,705.90
2023-03-21T13:42:44.025Z,106.72
2023-03-21T13:47:55.578Z,71.53
2023-03-21T13:53:15.683Z,46.88
2023-03-21T13:58:32.671Z,27.50
2023-03-21T14:03:35.215Z,60.40
2023-03-21T14:08:40.677Z,85.47
2023-03-21T14:13:50.903Z,187.57
2023-03-21T14:18:56.610Z,68.60
2023-03-21T14:24:04.744Z,97.50
2023-03-21T14:29:22.940Z,176.45
2023-03-21T14:34:29.610Z,228.20
2023-03-21T14:39:33.495Z,280.65
2023-03-21T14:44:56.243Z,288.40
2023-03-21T14:50:01.145Z,325.17
2023-03-21T14:55:11.683Z,410.40
2023-03-21T15:00:22.884Z,271.90
2023-03-21T15:05:28.444Z,147.60
2023-03-21T15:10:31.844Z,50.28
2023-03-21T15:15:33.957Z,88.80
2023-03-21T15:20:38.337Z,100.53
2023-03-21T15:25:41.088Z,188.05
2023-03-21T15:30:51.427Z,145.75
2023-03-21T15:35:56.281Z,243.77
2023-03-21T15:41:20.154Z,305.27
2023-03-21T15:46:40.423Z,310.40
2023-03-21T15:51:46.254Z,375.38
2023-03-21T15:56:51.729Z,336.42
2023-03-21T16:01:53.900Z,501.67
2023-03-21T16:07:15.352Z,542.53
2023-03-21T16:12:18.935Z,453.50
2023-03-21T16:17:27.643Z,456.13
2023-03-21T16:22:32.486Z,610.85
2023-03-21T16:27:34.387Z,778.47
2023-03-21T16:32:36.261Z,813.05
2023-03-21T16:37:39.153Z,833.50
2023-03-21T16:42:41.205Z,822.22
2023-03-21T16:47:44.460Z,819.75
2023-03-21T16:52:47.614Z,845.28
2023-03-21T16:57:52.334Z,813.60
2023-03-21T17:02:56.220Z,798.90
2023-03-21T17:08:02.133Z,819.78
2023-03-21T17:13:04.039Z,796.88
2023-03-21T17:18:05.924Z,786.42
2023-03-21T17:23:07.940Z,773.15
2023-03-21T17:28:09.826Z,758.38
2023-03-21T17:33:14.310Z,740.15
2023-03-21T17:38:17.641Z,719.47
2023-03-21T17:43:23.750Z,689.92
2023-03-21T17:48:25.741Z,708.63
2023-03-21T17:53:28.203Z,662.75
2023-03-21T17:58:30.315Z,642.55
2023-03-21T18:03:32.387Z,690.00
2023-03-21T18:08:34.426Z,680.20
2023-03-21T18:13:36.899Z,652.65
2023-03-21T18:18:39.124Z,689.05
2023-03-21T18:23:41.525Z,459.98
2023-03-21T18:28:43.722Z,374.60
2023-03-21T18:33:47.418Z,394.40
2023-03-21T18:38:49.410Z,373.00
2023-03-21T18:44:14.258Z,362.48
2023-03-21T18:49:58.947Z,343.77
2023-03-21T18:54:38.158Z,359.42
2023-03-21T18:59:40.310Z,339.85
2023-03-21T19:04:43.252Z,322.10
2023-03-21T19:10:15.429Z,322.55
2023-03-21T19:15:07.903Z,382.08
2023-03-21T19:20:11.882Z,461.60
2023-03-21T19:25:14.675Z,552.20
2023-03-21T19:30:16.716Z,550.10
2023-03-21T19:35:18.899Z,539.67
2023-03-21T19:40:21.505Z,557.55
2023-03-21T19:45:23.420Z,694.05
2023-03-21T19:50:55.351Z,645.45
2023-03-21T19:55:52.988Z,675.90
2023-03-21T20:00:56.323Z,682.45
2023-03-21T20:06:04.097Z,522.22
2023-03-21T20:11:06.197Z,508.52
2023-03-21T20:16:10.642Z,599.67
2023-03-21T20:21:17.533Z,777.90
2023-03-21T20:26:19.947Z,787.50
2023-03-21T20:31:22.930Z,710.70
2023-03-21T20:36:38.625Z,445.10
2023-03-21T20:41:41.907Z,604.03
2023-03-21T20:46:47.082Z,658.45
2023-03-21T20:52:49.342Z,639.95
2023-03-21T20:57:12.773Z,659.17
2023-03-21T21:02:15.043Z,785.85
2023-03-21T21:07:17.411Z,798.78
2023-03-21T21:12:19.586Z,783.88
2023-03-21T21:17:40.311Z,775.38
2023-03-21T21:22:52.289Z,774.67
2023-03-21T21:28:01.843Z,781.00
2023-03-21T21:33:05.360Z,772.65
2023-03-21T21:38:07.189Z,784.00
2023-03-21T21:43:09.318Z,781.78
2023-03-21T21:48:11.696Z,782.53
2023-03-21T21:53:18.468Z,789.78
2023-03-21T21:58:21.249Z,792.20
2023-03-21T22:03:23.342Z,789.92
2023-03-21T22:08:25.387Z,792.75
2023-03-21T22:13:27.783Z,789.05
2023-03-21T22:18:29.614Z,788.85
2023-03-21T22:23:31.502Z,780.75
2023-03-21T22:28:34.612Z,789.33
2023-03-21T22:33:36.755Z,781.72
2023-03-21T22:38:38.874Z,780.63
2023-03-21T22:43:40.776Z,780.83
2023-03-21T22:48:42.679Z,781.40
2023-03-21T22:53:44.563Z,785.88
2023-03-21T22:58:46.447Z,787.50
2023-03-21T23:03:48.323Z,783.05
2023-03-21T23:08:50.209Z,774.38
2023-03-21T23:14:06.797Z,771.08
2023-03-21T23:19:10.445Z,767.38
2023-03-21T23:24:12.400Z,766.72
2023-03-21T23:29:14.325Z,766.92
2023-03-21T23:34:16.230Z,757.75
2023-03-21T23:39:18.660Z,760.08
2023-03-21T23:44:20.590Z,757.40
2023-03-21T23:49:22.407Z,764.33
2023-03-21T23:54:24.186Z,762.53
2023-03-21T23:59:27.578Z,770.42
